sensor_id;sensor_type;location;lat;lon;timestamp;pressure;altitude;pressure_sealevel;temperature;humidity
64632;BME280;58358;50.936;0.246;2023-01-30T00:01:37;101674.75;;;3.15;96.49
64632;BME280;58358;50.936;0.246;2023-01-30T00:04:03;101676.98;;;3.40;97.60
64632;BME280;58358;50.936;0.246;2023-01-30T00:06:28;101682.03;;;4.43;94.14
64632;BME280;58358;50.936;0.246;2023-01-30T00:08:54;101677.00;;;2.97;93.58
64632;BME280;58358;50.936;0.246;2023-01-30T00:11:20;101672.67;;;4.84;90.38
64632;BME280;58358;50.936;0.246;2023-01-30T00:13:46;101682.74;;;5.54;87.94
64632;BME280;58358;50.936;0.246;2023-01-30T00:16:10;101687.56;;;5.07;90.74
64632;BME280;58358;50.936;0.246;2023-01-30T00:18:36;101673.61;;;4.42;92.27
64632;BME280;58358;50.936;0.246;2023-01-30T00:21:03;101664.33;;;4.42;93.47
64632;BME280;58358;50.936;0.246;2023-01-30T00:23:27;101655.13;;;3.88;95.62
64632;BME280;58358;50.936;0.246;2023-01-30T00:25:51;101660.97;;;4.60;92.94
64632;BME280;58358;50.936;0.246;2023-01-30T00:28:17;101657.15;;;3.94;94.70
64632;BME280;58358;50.936;0.246;2023-01-30T00:30:42;101645.28;;;4.43;95.12
64632;BME280;58358;50.936;0.246;2023-01-30T00:33:08;101641.84;;;4.61;91.38
64632;BME280;58358;50.936;0.246;2023-01-30T00:35:33;101650.69;;;4.39;94.50
64632;BME280;58358;50.936;0.246;2023-01-30T00:38:00;101646.50;;;3.97;95.55
64632;BME280;58358;50.936;0.246;2023-01-30T00:40:24;101643.93;;;5.14;92.27
64632;BME280;58358;50.936;0.246;2023-01-30T00:42:49;101638.32;;;4.10;93.02
64632;BME280;58358;50.936;0.246;2023-01-30T00:45:15;101632.90;;;3.54;94.70
64632;BME280;58358;50.936;0.246;2023-01-30T00:47:41;101633.45;;;4.59;93.96
64632;BME280;58358;50.936;0.246;2023-01-30T00:50:06;101630.21;;;4.66;92.07
64632;BME280;58358;50.936;0.246;2023-01-30T00:52:31;101632.45;;;4.46;92.64
64632;BME280;58358;50.936;0.246;2023-01-30T00:54:57;101633.60;;;4.92;91.02
64632;BME280;58358;50.936;0.246;2023-01-30T00:57:23;101634.74;;;4.34;93.05
64632;BME280;58358;50.936;0.246;2023-01-30T00:59:49;101629.50;;;4.35;93.70
64632;BME280;58358;50.936;0.246;2023-01-30T01:02:16;101623.99;;;4.39;92.98
64632;BME280;58358;50.936;0.246;2023-01-30T01:04:41;101626.57;;;4.07;94.83
64632;BME280;58358;50.936;0.246;2023-01-30T01:07:06;101633.30;;;3.87;95.42
64632;BME280;58358;50.936;0.246;2023-01-30T01:09:31;101646.88;;;4.49;92.97
64632;BME280;58358;50.936;0.246;2023-01-30T01:11:57;101650.95;;;4.15;92.71
64632;BME280;58358;50.936;0.246;2023-01-30T01:14:22;101651.14;;;4.18;92.39
64632;BME280;58358;50.936;0.246;2023-01-30T01:16:48;101650.85;;;4.65;92.65
64632;BME280;58358;50.936;0.246;2023-01-30T01:19:13;101647.88;;;4.34;93.34
64632;BME280;58358;50.936;0.246;2023-01-30T01:21:39;101649.83;;;4.45;92.06
64632;BME280;58358;50.936;0.246;2023-01-30T01:24:04;101644.88;;;5.92;87.68
64632;BME280;58358;50.936;0.246;2023-01-30T01:26:30;101642.32;;;5.65;89.09
64632;BME280;58358;50.936;0.246;2023-01-30T01:28:56;101648.70;;;4.84;90.69
64632;BME280;58358;50.936;0.246;2023-01-30T01:31:21;101644.33;;;5.46;88.94
64632;BME280;58358;50.936;0.246;2023-01-30T01:33:47;101644.48;;;5.37;89.39
64632;BME280;58358;50.936;0.246;2023-01-30T01:36:13;101644.81;;;5.54;87.25
64632;BME280;58358;50.936;0.246;2023-01-30T01:38:41;101645.96;;;5.16;87.38
64632;BME280;58358;50.936;0.246;2023-01-30T01:41:04;101646.67;;;6.01;85.92
64632;BME280;58358;50.936;0.246;2023-01-30T01:43:33;101642.80;;;5.14;86.77
64632;BME280;58358;50.936;0.246;2023-01-30T01:45:58;101640.25;;;5.36;87.97
64632;BME280;58358;50.936;0.246;2023-01-30T01:48:28;101635.18;;;5.40;87.13
64632;BME280;58358;50.936;0.246;2023-01-30T01:50:52;101640.59;;;5.97;85.15
64632;BME280;58358;50.936;0.246;2023-01-30T01:53:16;101644.76;;;6.90;82.87
64632;BME280;58358;50.936;0.246;2023-01-30T01:55:41;101642.27;;;5.26;86.76
64632;BME280;58358;50.936;0.246;2023-01-30T01:58:10;101638.41;;;5.93;85.55
64632;BME280;58358;50.936;0.246;2023-01-30T02:00:31;101629.71;;;6.39;82.87
64632;BME280;58358;50.936;0.246;2023-01-30T02:03:00;101622.97;;;6.60;82.10
64632;BME280;58358;50.936;0.246;2023-01-30T02:05:24;101620.95;;;7.26;80.51
64632;BME280;58358;50.936;0.246;2023-01-30T02:07:52;101624.76;;;6.26;83.57
64632;BME280;58358;50.936;0.246;2023-01-30T02:10:18;101625.48;;;6.15;84.97
64632;BME280;58358;50.936;0.246;2023-01-30T02:12:40;101615.96;;;5.95;84.50
64632;BME280;58358;50.936;0.246;2023-01-30T02:15:07;101605.13;;;5.72;87.40
64632;BME280;58358;50.936;0.246;2023-01-30T02:17:32;101599.12;;;5.22;87.41
64632;BME280;58358;50.936;0.246;2023-01-30T02:20:04;101604.90;;;5.02;89.83
64632;BME280;58358;50.936;0.246;2023-01-30T02:24:56;101612.60;;;5.92;85.42
64632;BME280;58358;50.936;0.246;2023-01-30T02:32:13;101601.57;;;4.87;88.77
64632;BME280;58358;50.936;0.246;2023-01-30T02:34:43;101604.66;;;4.83;90.40
64632;BME280;58358;50.936;0.246;2023-01-30T02:37:05;101601.29;;;5.95;87.76
64632;BME280;58358;50.936;0.246;2023-01-30T02:39:32;101593.25;;;5.92;84.63
64632;BME280;58358;50.936;0.246;2023-01-30T02:41:58;101589.30;;;6.94;81.11
64632;BME280;58358;50.936;0.246;2023-01-30T02:44:21;101587.13;;;7.62;77.75
64632;BME280;58358;50.936;0.246;2023-01-30T02:46:52;101589.00;;;7.06;78.76
64632;BME280;58358;50.936;0.246;2023-01-30T02:49:10;101586.57;;;6.20;82.31
64632;BME280;58358;50.936;0.246;2023-01-30T02:51:35;101590.28;;;5.85;84.73
64632;BME280;58358;50.936;0.246;2023-01-30T02:53:59;101584.20;;;6.45;81.27
64632;BME280;58358;50.936;0.246;2023-01-30T02:56:25;101589.34;;;7.10;79.71
64632;BME280;58358;50.936;0.246;2023-01-30T02:58:57;101585.67;;;7.19;79.80
64632;BME280;58358;50.936;0.246;2023-01-30T03:01:31;101583.81;;;7.41;79.47
64632;BME280;58358;50.936;0.246;2023-01-30T03:06:26;101580.97;;;7.31;78.99
64632;BME280;58358;50.936;0.246;2023-01-30T03:08:40;101586.16;;;6.78;80.65
64632;BME280;58358;50.936;0.246;2023-01-30T03:11:02;101591.05;;;7.55;78.87
64632;BME280;58358;50.936;0.246;2023-01-30T03:13:36;101591.57;;;7.40;78.52
64632;BME280;58358;50.936;0.246;2023-01-30T03:15:54;101590.50;;;6.62;81.52
64632;BME280;58358;50.936;0.246;2023-01-30T03:18:17;101583.08;;;7.23;79.24
64632;BME280;58358;50.936;0.246;2023-01-30T03:20:43;101592.60;;;6.56;80.08
64632;BME280;58358;50.936;0.246;2023-01-30T03:23:08;101600.20;;;5.78;82.95
64632;BME280;58358;50.936;0.246;2023-01-30T03:25:36;101604.30;;;5.09;88.07
64632;BME280;58358;50.936;0.246;2023-01-30T03:28:01;101610.20;;;4.96;90.33
64632;BME280;58358;50.936;0.246;2023-01-30T03:30:26;101613.43;;;4.59;91.92
64632;BME280;58358;50.936;0.246;2023-01-30T03:32:52;101595.60;;;4.74;90.43
64632;BME280;58358;50.936;0.246;2023-01-30T03:35:18;101593.29;;;4.76;91.47
64632;BME280;58358;50.936;0.246;2023-01-30T03:37:42;101596.55;;;4.44;92.49
64632;BME280;58358;50.936;0.246;2023-01-30T03:40:10;101595.29;;;4.43;93.05
64632;BME280;58358;50.936;0.246;2023-01-30T03:42:33;101599.23;;;4.18;94.67
64632;BME280;58358;50.936;0.246;2023-01-30T03:44:59;101599.84;;;4.44;93.06
64632;BME280;58358;50.936;0.246;2023-01-30T03:47:24;101598.13;;;4.34;94.11
64632;BME280;58358;50.936;0.246;2023-01-30T03:49:50;101597.29;;;5.12;92.03
64632;BME280;58358;50.936;0.246;2023-01-30T03:52:15;101603.02;;;4.42;95.61
64632;BME280;58358;50.936;0.246;2023-01-30T03:54:42;101603.82;;;4.83;94.63
64632;BME280;58358;50.936;0.246;2023-01-30T03:57:07;101604.42;;;4.99;91.58
64632;BME280;58358;50.936;0.246;2023-01-30T03:59:33;101614.82;;;4.69;92.49
64632;BME280;58358;50.936;0.246;2023-01-30T04:01:58;101613.95;;;4.52;94.26
64632;BME280;58358;50.936;0.246;2023-01-30T04:04:23;101614.99;;;4.26;95.07
64632;BME280;58358;50.936;0.246;2023-01-30T04:06:49;101616.53;;;4.77;93.67
64632;BME280;58358;50.936;0.246;2023-01-30T04:09:15;101619.22;;;4.68;94.61
64632;BME280;58358;50.936;0.246;2023-01-30T04:11:40;101611.45;;;4.23;96.64
64632;BME280;58358;50.936;0.246;2023-01-30T04:14:06;101609.69;;;4.28;96.62
64632;BME280;58358;50.936;0.246;2023-01-30T04:16:31;101611.71;;;4.31;95.92
64632;BME280;58358;50.936;0.246;2023-01-30T04:18:56;101609.48;;;4.11;95.84
64632;BME280;58358;50.936;0.246;2023-01-30T04:21:22;101605.72;;;4.19;95.86
64632;BME280;58358;50.936;0.246;2023-01-30T04:23:48;101607.98;;;4.59;96.27
64632;BME280;58358;50.936;0.246;2023-01-30T04:26:14;101616.67;;;4.04;97.77
64632;BME280;58358;50.936;0.246;2023-01-30T04:28:39;101608.45;;;4.54;95.14
64632;BME280;58358;50.936;0.246;2023-01-30T04:31:05;101605.05;;;4.49;95.66
64632;BME280;58358;50.936;0.246;2023-01-30T04:33:29;101607.44;;;4.84;95.22
64632;BME280;58358;50.936;0.246;2023-01-30T04:35:57;101601.15;;;4.57;93.51
64632;BME280;58358;50.936;0.246;2023-01-30T04:38:21;101604.29;;;4.35;93.65
64632;BME280;58358;50.936;0.246;2023-01-30T04:40:48;101606.93;;;4.64;94.80
64632;BME280;58358;50.936;0.246;2023-01-30T04:43:12;101612.73;;;5.16;93.67
64632;BME280;58358;50.936;0.246;2023-01-30T04:45:42;101607.37;;;4.80;93.59
64632;BME280;58358;50.936;0.246;2023-01-30T04:48:04;101614.70;;;4.36;93.74
64632;BME280;58358;50.936;0.246;2023-01-30T04:50:29;101617.23;;;5.09;93.04
64632;BME280;58358;50.936;0.246;2023-01-30T04:52:55;101616.52;;;5.00;91.57
64632;BME280;58358;50.936;0.246;2023-01-30T04:55:20;101624.75;;;4.00;96.30
64632;BME280;58358;50.936;0.246;2023-01-30T04:57:46;101616.46;;;4.87;94.61
64632;BME280;58358;50.936;0.246;2023-01-30T05:00:12;101607.85;;;4.99;94.27
64632;BME280;58358;50.936;0.246;2023-01-30T05:02:37;101619.43;;;4.35;94.79
64632;BME280;58358;50.936;0.246;2023-01-30T05:05:02;101619.66;;;4.33;95.92
64632;BME280;58358;50.936;0.246;2023-01-30T05:07:27;101622.45;;;5.37;92.45
64632;BME280;58358;50.936;0.246;2023-01-30T05:09:53;101627.02;;;5.96;89.59
64632;BME280;58358;50.936;0.246;2023-01-30T05:12:19;101624.94;;;5.97;89.42
64632;BME280;58358;50.936;0.246;2023-01-30T05:14:44;101627.81;;;5.16;92.61
64632;BME280;58358;50.936;0.246;2023-01-30T05:17:10;101634.20;;;4.82;93.45
64632;BME280;58358;50.936;0.246;2023-01-30T05:19:36;101630.11;;;5.60;91.84
64632;BME280;58358;50.936;0.246;2023-01-30T05:22:02;101628.92;;;5.82;88.81
64632;BME280;58358;50.936;0.246;2023-01-30T05:24:28;101636.94;;;5.94;89.12
64632;BME280;58358;50.936;0.246;2023-01-30T05:26:54;101645.61;;;6.10;87.73
64632;BME280;58358;50.936;0.246;2023-01-30T05:29:19;101655.49;;;6.24;86.53
64632;BME280;58358;50.936;0.246;2023-01-30T05:31:45;101649.92;;;5.93;87.81
64632;BME280;58358;50.936;0.246;2023-01-30T05:34:11;101653.41;;;5.42;88.13
64632;BME280;58358;50.936;0.246;2023-01-30T05:36:37;101650.04;;;4.69;91.89
64632;BME280;58358;50.936;0.246;2023-01-30T05:39:03;101652.11;;;4.87;91.51
64632;BME280;58358;50.936;0.246;2023-01-30T05:41:28;101652.96;;;5.48;89.53
64632;BME280;58358;50.936;0.246;2023-01-30T05:43:54;101640.83;;;5.01;90.63
64632;BME280;58358;50.936;0.246;2023-01-30T05:46:20;101654.23;;;4.14;93.00
64632;BME280;58358;50.936;0.246;2023-01-30T05:48:46;101654.65;;;4.83;93.02
64632;BME280;58358;50.936;0.246;2023-01-30T05:51:17;101661.34;;;4.10;93.68
64632;BME280;58358;50.936;0.246;2023-01-30T05:53:37;101659.59;;;5.06;91.83
64632;BME280;58358;50.936;0.246;2023-01-30T05:56:04;101656.07;;;5.34;90.58
64632;BME280;58358;50.936;0.246;2023-01-30T05:58:29;101654.38;;;5.28;89.02
64632;BME280;58358;50.936;0.246;2023-01-30T06:00:59;101653.13;;;6.06;86.43
64632;BME280;58358;50.936;0.246;2023-01-30T06:03:19;101651.82;;;4.55;90.43
64632;BME280;58358;50.936;0.246;2023-01-30T06:05:45;101655.21;;;6.20;86.40
64632;BME280;58358;50.936;0.246;2023-01-30T06:08:11;101656.96;;;6.47;84.57
64632;BME280;58358;50.936;0.246;2023-01-30T06:10:37;101649.62;;;6.24;84.27
64632;BME280;58358;50.936;0.246;2023-01-30T06:13:03;101655.83;;;6.94;81.70
64632;BME280;58358;50.936;0.246;2023-01-30T06:15:28;101659.00;;;7.34;79.80
64632;BME280;58358;50.936;0.246;2023-01-30T06:17:54;101662.43;;;6.56;81.61
64632;BME280;58358;50.936;0.246;2023-01-30T06:20:20;101657.76;;;6.54;81.61
64632;BME280;58358;50.936;0.246;2023-01-30T06:22:47;101659.83;;;6.95;80.62
64632;BME280;58358;50.936;0.246;2023-01-30T06:25:12;101671.79;;;7.58;79.70
64632;BME280;58358;50.936;0.246;2023-01-30T06:27:37;101680.90;;;6.83;81.05
64632;BME280;58358;50.936;0.246;2023-01-30T06:30:04;101684.73;;;7.44;80.54
64632;BME280;58358;50.936;0.246;2023-01-30T06:32:29;101690.40;;;6.58;81.50
64632;BME280;58358;50.936;0.246;2023-01-30T06:34:55;101687.14;;;6.08;86.70
64632;BME280;58358;50.936;0.246;2023-01-30T06:37:20;101687.29;;;5.70;87.02
64632;BME280;58358;50.936;0.246;2023-01-30T06:39:46;101690.79;;;5.44;90.51
64632;BME280;58358;50.936;0.246;2023-01-30T06:42:12;101691.83;;;6.38;88.38
64632;BME280;58358;50.936;0.246;2023-01-30T06:44:38;101684.80;;;5.25;90.67
64632;BME280;58358;50.936;0.246;2023-01-30T06:47:03;101687.52;;;5.10;90.85
64632;BME280;58358;50.936;0.246;2023-01-30T06:49:29;101704.33;;;6.05;88.22
64632;BME280;58358;50.936;0.246;2023-01-30T06:51:55;101705.27;;;6.12;88.45
64632;BME280;58358;50.936;0.246;2023-01-30T06:54:21;101708.32;;;5.33;92.24
64632;BME280;58358;50.936;0.246;2023-01-30T06:56:46;101707.72;;;5.83;89.17
64632;BME280;58358;50.936;0.246;2023-01-30T06:59:12;101707.01;;;5.53;90.77
64632;BME280;58358;50.936;0.246;2023-01-30T07:01:38;101706.12;;;5.68;89.58
64632;BME280;58358;50.936;0.246;2023-01-30T07:04:04;101707.53;;;5.33;90.06
64632;BME280;58358;50.936;0.246;2023-01-30T07:06:29;101707.77;;;5.34;90.24
64632;BME280;58358;50.936;0.246;2023-01-30T07:08:55;101720.12;;;4.37;93.05
64632;BME280;58358;50.936;0.246;2023-01-30T07:11:20;101723.73;;;5.34;90.90
64632;BME280;58358;50.936;0.246;2023-01-30T07:13:46;101732.81;;;4.66;91.77
64632;BME280;58358;50.936;0.246;2023-01-30T07:16:12;101739.76;;;4.89;93.37
64632;BME280;58358;50.936;0.246;2023-01-30T07:18:38;101750.19;;;5.47;91.43
64632;BME280;58358;50.936;0.246;2023-01-30T07:21:03;101745.42;;;4.98;91.71
64632;BME280;58358;50.936;0.246;2023-01-30T07:23:29;101754.61;;;5.43;90.49
64632;BME280;58358;50.936;0.246;2023-01-30T07:25:55;101763.50;;;4.68;91.84
64632;BME280;58358;50.936;0.246;2023-01-30T07:28:21;101763.22;;;4.75;91.52
64632;BME280;58358;50.936;0.246;2023-01-30T07:30:46;101765.53;;;4.77;91.50
64632;BME280;58358;50.936;0.246;2023-01-30T07:33:12;101764.69;;;4.59;92.99
64632;BME280;58358;50.936;0.246;2023-01-30T07:35:37;101757.97;;;3.96;94.34
64632;BME280;58358;50.936;0.246;2023-01-30T07:38:03;101762.94;;;4.45;92.95
64632;BME280;58358;50.936;0.246;2023-01-30T07:40:28;101762.54;;;4.67;92.61
64632;BME280;58358;50.936;0.246;2023-01-30T07:42:57;101767.19;;;4.34;93.18
64632;BME280;58358;50.936;0.246;2023-01-30T07:45:19;101771.92;;;4.19;92.84
64632;BME280;58358;50.936;0.246;2023-01-30T07:47:45;101777.83;;;4.45;93.10
64632;BME280;58358;50.936;0.246;2023-01-30T07:50:10;101779.88;;;3.58;94.34
64632;BME280;58358;50.936;0.246;2023-01-30T07:52:37;101781.88;;;4.13;93.61
64632;BME280;58358;50.936;0.246;2023-01-30T07:55:01;101779.01;;;4.06;93.67
64632;BME280;58358;50.936;0.246;2023-01-30T07:57:27;101777.55;;;3.34;97.15
64632;BME280;58358;50.936;0.246;2023-01-30T07:59:52;101797.35;;;3.34;96.96
64632;BME280;58358;50.936;0.246;2023-01-30T08:02:19;101811.49;;;3.42;96.58
64632;BME280;58358;50.936;0.246;2023-01-30T08:04:44;101814.25;;;3.59;94.91
64632;BME280;58358;50.936;0.246;2023-01-30T08:07:10;101814.85;;;4.23;92.33
64632;BME280;58358;50.936;0.246;2023-01-30T08:09:35;101810.38;;;3.78;92.68
64632;BME280;58358;50.936;0.246;2023-01-30T08:12:00;101812.56;;;3.77;92.49
64632;BME280;58358;50.936;0.246;2023-01-30T08:14:26;101826.39;;;4.13;91.16
64632;BME280;58358;50.936;0.246;2023-01-30T08:16:52;101822.26;;;3.98;92.23
64632;BME280;58358;50.936;0.246;2023-01-30T08:19:18;101826.97;;;3.77;92.36
64632;BME280;58358;50.936;0.246;2023-01-30T08:21:43;101823.59;;;3.57;91.45
64632;BME280;58358;50.936;0.246;2023-01-30T08:24:09;101829.01;;;4.26;89.55
64632;BME280;58358;50.936;0.246;2023-01-30T08:26:34;101828.56;;;3.79;88.18
64632;BME280;58358;50.936;0.246;2023-01-30T08:28:59;101806.32;;;3.72;87.36
64632;BME280;58358;50.936;0.246;2023-01-30T08:31:25;101818.01;;;3.51;86.99
64632;BME280;58358;50.936;0.246;2023-01-30T08:33:50;101819.92;;;3.11;87.25
64632;BME280;58358;50.936;0.246;2023-01-30T08:36:16;101836.90;;;4.03;85.64
64632;BME280;58358;50.936;0.246;2023-01-30T08:38:41;101836.83;;;4.05;82.35
64632;BME280;58358;50.936;0.246;2023-01-30T08:41:07;101835.17;;;4.16;81.52
64632;BME280;58358;50.936;0.246;2023-01-30T08:43:32;101825.32;;;4.63;78.51
64632;BME280;58358;50.936;0.246;2023-01-30T08:45:58;101828.23;;;4.00;78.25
64632;BME280;58358;50.936;0.246;2023-01-30T08:48:23;101832.01;;;4.47;77.73
64632;BME280;58358;50.936;0.246;2023-01-30T08:50:51;101831.24;;;4.72;75.34
64632;BME280;58358;50.936;0.246;2023-01-30T08:53:15;101847.87;;;5.25;73.96
64632;BME280;58358;50.936;0.246;2023-01-30T08:55:43;101839.36;;;4.09;75.54
64632;BME280;58358;50.936;0.246;2023-01-30T08:58:07;101845.87;;;3.88;75.98
64632;BME280;58358;50.936;0.246;2023-01-30T09:00:32;101855.21;;;4.39;72.34
64632;BME280;58358;50.936;0.246;2023-01-30T09:02:59;101859.64;;;4.98;70.16
64632;BME280;58358;50.936;0.246;2023-01-30T09:05:24;101866.14;;;4.56;70.98
64632;BME280;58358;50.936;0.246;2023-01-30T09:07:50;101875.91;;;3.64;72.38
64632;BME280;58358;50.936;0.246;2023-01-30T09:10:16;101883.45;;;3.52;73.59
64632;BME280;58358;50.936;0.246;2023-01-30T09:12:42;101887.27;;;3.88;71.48
64632;BME280;58358;50.936;0.246;2023-01-30T09:15:09;101892.13;;;4.79;70.09
64632;BME280;58358;50.936;0.246;2023-01-30T09:17:33;101886.10;;;4.10;70.70
64632;BME280;58358;50.936;0.246;2023-01-30T09:19:59;101881.02;;;4.20;70.99
64632;BME280;58358;50.936;0.246;2023-01-30T09:22:25;101893.09;;;4.35;70.56
64632;BME280;58358;50.936;0.246;2023-01-30T09:24:50;101897.02;;;4.48;68.76
64632;BME280;58358;50.936;0.246;2023-01-30T09:27:16;101906.72;;;4.42;67.18
64632;BME280;58358;50.936;0.246;2023-01-30T09:29:42;101912.12;;;4.99;65.06
64632;BME280;58358;50.936;0.246;2023-01-30T09:32:08;101920.11;;;5.04;65.86
64632;BME280;58358;50.936;0.246;2023-01-30T09:34:34;101919.87;;;5.45;64.76
64632;BME280;58358;50.936;0.246;2023-01-30T09:37:00;101914.29;;;5.75;62.46
64632;BME280;58358;50.936;0.246;2023-01-30T09:39:25;101908.76;;;5.48;62.96
64632;BME280;58358;50.936;0.246;2023-01-30T09:46:47;101909.23;;;5.04;66.11
64632;BME280;58358;50.936;0.246;2023-01-30T09:49:16;101917.58;;;4.99;64.45
64632;BME280;58358;50.936;0.246;2023-01-30T09:51:42;101917.57;;;5.45;63.52
64632;BME280;58358;50.936;0.246;2023-01-30T09:54:15;101925.85;;;5.05;63.86
64632;BME280;58358;50.936;0.246;2023-01-30T09:56:24;101927.10;;;4.62;63.52
64632;BME280;58358;50.936;0.246;2023-01-30T09:58:55;101925.50;;;4.58;65.36
64632;BME280;58358;50.936;0.246;2023-01-30T10:01:21;101928.37;;;4.38;65.45
64632;BME280;58358;50.936;0.246;2023-01-30T10:03:54;101919.87;;;4.22;67.83
64632;BME280;58358;50.936;0.246;2023-01-30T10:06:11;101934.31;;;3.76;69.42
64632;BME280;58358;50.936;0.246;2023-01-30T10:08:44;101933.98;;;4.29;65.47
64632;BME280;58358;50.936;0.246;2023-01-30T10:11:05;101935.11;;;4.88;66.44
64632;BME280;58358;50.936;0.246;2023-01-30T10:13:34;101941.95;;;4.44;65.67
64632;BME280;58358;50.936;0.246;2023-01-30T10:15:53;101940.18;;;4.31;65.23
64632;BME280;58358;50.936;0.246;2023-01-30T10:18:32;101942.96;;;3.92;68.03
64632;BME280;58358;50.936;0.246;2023-01-30T10:20:48;101943.69;;;4.32;67.58
64632;BME280;58358;50.936;0.246;2023-01-30T10:23:24;101944.36;;;5.01;64.32
64632;BME280;58358;50.936;0.246;2023-01-30T10:25:39;101946.23;;;5.32;65.36
64632;BME280;58358;50.936;0.246;2023-01-30T10:28:05;101954.75;;;4.65;64.40
64632;BME280;58358;50.936;0.246;2023-01-30T10:30:25;101952.20;;;4.15;65.62
64632;BME280;58358;50.936;0.246;2023-01-30T10:32:54;101955.44;;;4.35;65.52
64632;BME280;58358;50.936;0.246;2023-01-30T10:35:20;101957.59;;;4.41;65.26
64632;BME280;58358;50.936;0.246;2023-01-30T10:37:47;101950.27;;;4.75;63.56
64632;BME280;58358;50.936;0.246;2023-01-30T10:40:18;101952.38;;;4.88;63.99
64632;BME280;58358;50.936;0.246;2023-01-30T10:42:38;101958.24;;;4.95;65.05
64632;BME280;58358;50.936;0.246;2023-01-30T10:45:09;101956.77;;;3.77;66.45
64632;BME280;58358;50.936;0.246;2023-01-30T10:47:32;101950.31;;;4.24;66.50
64632;BME280;58358;50.936;0.246;2023-01-30T10:49:52;101946.76;;;4.16;66.85
64632;BME280;58358;50.936;0.246;2023-01-30T10:52:28;101946.22;;;4.56;65.63
64632;BME280;58358;50.936;0.246;2023-01-30T10:54:47;101952.55;;;4.47;65.19
64632;BME280;58358;50.936;0.246;2023-01-30T10:57:17;101947.99;;;4.58;66.17
64632;BME280;58358;50.936;0.246;2023-01-30T10:59:45;101949.68;;;4.30;66.53
64632;BME280;58358;50.936;0.246;2023-01-30T11:02:09;101951.86;;;4.72;65.62
64632;BME280;58358;50.936;0.246;2023-01-30T11:04:31;101947.72;;;4.25;66.44
64632;BME280;58358;50.936;0.246;2023-01-30T11:06:51;101953.48;;;4.91;64.99
64632;BME280;58358;50.936;0.246;2023-01-30T11:09:17;101950.23;;;5.10;65.05
64632;BME280;58358;50.936;0.246;2023-01-30T11:11:48;101950.16;;;3.94;66.29
64632;BME280;58358;50.936;0.246;2023-01-30T11:14:10;101954.35;;;3.97;65.67
64632;BME280;58358;50.936;0.246;2023-01-30T11:16:41;101943.02;;;4.60;65.71
64632;BME280;58358;50.936;0.246;2023-01-30T11:19:04;101948.93;;;4.33;65.77
64632;BME280;58358;50.936;0.246;2023-01-30T11:21:30;101952.61;;;3.98;66.24
64632;BME280;58358;50.936;0.246;2023-01-30T11:23:53;101961.25;;;4.25;65.20
64632;BME280;58358;50.936;0.246;2023-01-30T11:26:22;101957.64;;;4.70;64.43
64632;BME280;58358;50.936;0.246;2023-01-30T11:28:43;101950.97;;;4.28;65.66
64632;BME280;58358;50.936;0.246;2023-01-30T11:31:15;101948.08;;;4.93;63.19
64632;BME280;58358;50.936;0.246;2023-01-30T11:33:36;101963.22;;;5.12;61.71
64632;BME280;58358;50.936;0.246;2023-01-30T11:36:05;101961.84;;;4.81;62.05
64632;BME280;58358;50.936;0.246;2023-01-30T11:38:28;101949.31;;;4.89;61.91
64632;BME280;58358;50.936;0.246;2023-01-30T11:41:01;101956.78;;;4.81;62.02
64632;BME280;58358;50.936;0.246;2023-01-30T11:43:19;101952.53;;;5.23;62.16
64632;BME280;58358;50.936;0.246;2023-01-30T11:45:46;101944.36;;;5.39;60.42
64632;BME280;58358;50.936;0.246;2023-01-30T11:48:15;101946.20;;;4.56;62.07
64632;BME280;58358;50.936;0.246;2023-01-30T11:50:39;101943.47;;;4.76;61.44
64632;BME280;58358;50.936;0.246;2023-01-30T11:53:02;101952.24;;;4.84;61.55
64632;BME280;58358;50.936;0.246;2023-01-30T11:55:26;101956.22;;;5.23;60.90
64632;BME280;58358;50.936;0.246;2023-01-30T11:57:55;101960.27;;;5.41;60.05
64632;BME280;58358;50.936;0.246;2023-01-30T12:00:19;101955.65;;;5.08;60.33
64632;BME280;58358;50.936;0.246;2023-01-30T12:02:44;101961.83;;;4.91;60.15
64632;BME280;58358;50.936;0.246;2023-01-30T12:05:20;101961.16;;;5.25;61.07
64632;BME280;58358;50.936;0.246;2023-01-30T12:07:36;101962.84;;;5.32;60.22
64632;BME280;58358;50.936;0.246;2023-01-30T12:10:03;101961.17;;;4.91;59.65
64632;BME280;58358;50.936;0.246;2023-01-30T12:12:30;101963.26;;;4.78;60.51
64632;BME280;58358;50.936;0.246;2023-01-30T12:14:55;101960.45;;;5.77;58.77
64632;BME280;58358;50.936;0.246;2023-01-30T12:17:21;101957.35;;;5.41;58.79
64632;BME280;58358;50.936;0.246;2023-01-30T12:19:53;101959.57;;;5.28;58.62
64632;BME280;58358;50.936;0.246;2023-01-30T12:22:19;101963.63;;;5.34;59.09
64632;BME280;58358;50.936;0.246;2023-01-30T12:24:37;101954.85;;;4.73;59.65
64632;BME280;58358;50.936;0.246;2023-01-30T12:27:03;101934.49;;;5.26;59.57
64632;BME280;58358;50.936;0.246;2023-01-30T12:29:29;101951.92;;;5.19;59.72
64632;BME280;58358;50.936;0.246;2023-01-30T12:31:58;101955.74;;;5.67;58.07
64632;BME280;58358;50.936;0.246;2023-01-30T12:34:17;101939.41;;;4.63;59.77
64632;BME280;58358;50.936;0.246;2023-01-30T12:36:48;101931.68;;;4.85;60.41
64632;BME280;58358;50.936;0.246;2023-01-30T12:39:18;101923.88;;;4.99;59.31
64632;BME280;58358;50.936;0.246;2023-01-30T12:41:50;101918.24;;;5.23;59.06
64632;BME280;58358;50.936;0.246;2023-01-30T12:44:13;101909.45;;;4.63;60.06
64632;BME280;58358;50.936;0.246;2023-01-30T12:46:41;101926.11;;;5.41;58.82
64632;BME280;58358;50.936;0.246;2023-01-30T12:49:02;101930.40;;;5.75;59.76
64632;BME280;58358;50.936;0.246;2023-01-30T12:53:53;101939.20;;;5.78;58.27
64632;BME280;58358;50.936;0.246;2023-01-30T12:56:22;101953.58;;;5.92;56.42
64632;BME280;58358;50.936;0.246;2023-01-30T12:58:38;101944.28;;;5.72;57.27
64632;BME280;58358;50.936;0.246;2023-01-30T13:01:12;101944.47;;;5.66;58.69
64632;BME280;58358;50.936;0.246;2023-01-30T13:03:33;101940.72;;;5.77;58.15
64632;BME280;58358;50.936;0.246;2023-01-30T13:05:54;101953.87;;;6.19;55.44
64632;BME280;58358;50.936;0.246;2023-01-30T13:08:31;101957.71;;;6.40;55.99